sensor_id;sensor_type;location;lat;lon;timestamp;pressure;altitude;pressure_sealevel;temperature;humidity
59194;BME280;44967;48.598;15.650;2022-09-09T00:01:04;98018.47;;;17.54;59.40
59194;BME280;44967;48.598;15.650;2022-09-09T00:03:44;98024.44;;;17.49;59.75
59194;BME280;44967;48.598;15.650;2022-09-09T00:09:16;98010.78;;;17.35;59.66
59194;BME280;44967;48.598;15.650;2022-09-09T00:14:38;98021.78;;;17.38;59.14
59194;BME280;44967;48.598;15.650;2022-09-09T00:17:09;98027.72;;;17.33;60.68
59194;BME280;44967;48.598;15.650;2022-09-09T00:20:03;98024.44;;;17.49;58.49
59194;BME280;44967;48.598;15.650;2022-09-09T00:22:36;98024.50;;;17.42;59.50
59194;BME280;44967;48.598;15.650;2022-09-09T00:25:26;97998.97;;;17.31;58.23
59194;BME280;44967;48.598;15.650;2022-09-09T00:27:54;98003.78;;;17.23;58.94
59194;BME280;44967;48.598;15.650;2022-09-09T00:30:25;98015.44;;;16.96;59.80
59194;BME280;44967;48.598;15.650;2022-09-09T00:32:59;98006.72;;;17.05;60.77
59194;BME280;44967;48.598;15.650;2022-09-09T00:37:57;98019.56;;;17.22;59.30
59194;BME280;44967;48.598;15.650;2022-09-09T00:40:37;98004.66;;;17.16;58.77
59194;BME280;44967;48.598;15.650;2022-09-09T00:43:23;98017.19;;;17.24;59.00
59194;BME280;44967;48.598;15.650;2022-09-09T00:49:04;98012.59;;;17.07;60.30
59194;BME280;44967;48.598;15.650;2022-09-09T00:54:26;98021.69;;;17.04;59.33
59194;BME280;44967;48.598;15.650;2022-09-09T00:57:11;98029.97;;;17.00;58.50
59194;BME280;44967;48.598;15.650;2022-09-09T00:59:52;98016.44;;;16.67;59.95
59194;BME280;44967;48.598;15.650;2022-09-09T01:04:53;98018.72;;;16.80;60.69
59194;BME280;44967;48.598;15.650;2022-09-09T01:07:20;98025.41;;;16.79;60.70
59194;BME280;44967;48.598;15.650;2022-09-09T01:09:54;98017.06;;;16.90;59.62
59194;BME280;44967;48.598;15.650;2022-09-09T01:12:38;98010.34;;;16.91;59.10
59194;BME280;44967;48.598;15.650;2022-09-09T01:15:33;98026.09;;;16.90;60.07
59194;BME280;44967;48.598;15.650;2022-09-09T01:18:04;98021.84;;;16.82;58.24
59194;BME280;44967;48.598;15.650;2022-09-09T01:28:19;98019.94;;;16.75;59.39
59194;BME280;44967;48.598;15.650;2022-09-09T01:30:46;98032.13;;;16.78;58.56
59194;BME280;44967;48.598;15.650;2022-09-09T01:33:17;98044.28;;;16.84;59.94
59194;BME280;44967;48.598;15.650;2022-09-09T01:35:48;98025.88;;;16.70;58.53
59194;BME280;44967;48.598;15.650;2022-09-09T01:38:17;98026.75;;;16.59;59.76
59194;BME280;44967;48.598;15.650;2022-09-09T01:40:43;98031.47;;;16.59;59.63
59194;BME280;44967;48.598;15.650;2022-09-09T01:43:09;98035.38;;;16.62;59.91
59194;BME280;44967;48.598;15.650;2022-09-09T01:45:36;98027.91;;;16.62;59.79
59194;BME280;44967;48.598;15.650;2022-09-09T01:48:03;98035.00;;;16.59;60.34
59194;BME280;44967;48.598;15.650;2022-09-09T01:50:29;98045.53;;;16.72;59.41
59194;BME280;44967;48.598;15.650;2022-09-09T01:52:58;98055.41;;;16.73;59.18
59194;BME280;44967;48.598;15.650;2022-09-09T01:58:39;98020.09;;;16.53;59.40
59194;BME280;44967;48.598;15.650;2022-09-09T02:01:22;98044.88;;;16.57;58.30
59194;BME280;44967;48.598;15.650;2022-09-09T02:03:53;98045.25;;;16.55;59.26
59194;BME280;44967;48.598;15.650;2022-09-09T02:06:40;98037.06;;;16.44;58.28
59194;BME280;44967;48.598;15.650;2022-09-09T02:09:07;98040.63;;;16.41;59.63
59194;BME280;44967;48.598;15.650;2022-09-09T02:11:37;98050.09;;;16.40;60.38
59194;BME280;44967;48.598;15.650;2022-09-09T02:14:10;98042.97;;;16.47;58.93
59194;BME280;44967;48.598;15.650;2022-09-09T02:16:42;98025.69;;;16.35;59.79
59194;BME280;44967;48.598;15.650;2022-09-09T02:21:49;98048.50;;;16.43;58.57
59194;BME280;44967;48.598;15.650;2022-09-09T02:24:16;98023.41;;;16.26;59.28
59194;BME280;44967;48.598;15.650;2022-09-09T02:26:42;98042.22;;;16.39;59.86
59194;BME280;44967;48.598;15.650;2022-09-09T02:29:16;98044.59;;;16.37;58.77
59194;BME280;44967;48.598;15.650;2022-09-09T02:31:45;98043.47;;;16.27;59.65
59194;BME280;44967;48.598;15.650;2022-09-09T02:34:12;98025.81;;;16.13;59.82
59194;BME280;44967;48.598;15.650;2022-09-09T02:36:40;98020.28;;;16.17;60.77
59194;BME280;44967;48.598;15.650;2022-09-09T02:39:07;98023.78;;;16.25;60.85
59194;BME280;44967;48.598;15.650;2022-09-09T02:41:37;98015.53;;;16.21;59.18
59194;BME280;44967;48.598;15.650;2022-09-09T02:44:09;98023.44;;;16.19;59.50
59194;BME280;44967;48.598;15.650;2022-09-09T02:49:25;98050.03;;;16.48;59.40
59194;BME280;44967;48.598;15.650;2022-09-09T02:51:58;98047.75;;;16.35;59.45
59194;BME280;44967;48.598;15.650;2022-09-09T02:54:31;98047.38;;;16.33;59.31
59194;BME280;44967;48.598;15.650;2022-09-09T02:57:10;98051.72;;;16.30;58.54
59194;BME280;44967;48.598;15.650;2022-09-09T02:59:37;98033.66;;;16.18;59.50
59194;BME280;44967;48.598;15.650;2022-09-09T03:02:03;98051.31;;;16.32;59.47
59194;BME280;44967;48.598;15.650;2022-09-09T03:04:29;98050.59;;;16.13;59.55
59194;BME280;44967;48.598;15.650;2022-09-09T03:06:57;98049.03;;;16.12;59.74
59194;BME280;44967;48.598;15.650;2022-09-09T03:09:23;98053.81;;;16.04;59.85
59194;BME280;44967;48.598;15.650;2022-09-09T03:11:51;98028.69;;;15.77;60.66
59194;BME280;44967;48.598;15.650;2022-09-09T03:14:17;98040.81;;;16.01;60.86
59194;BME280;44967;48.598;15.650;2022-09-09T03:16:47;98036.06;;;16.09;59.22
59194;BME280;44967;48.598;15.650;2022-09-09T03:19:13;98020.78;;;15.90;60.35
59194;BME280;44967;48.598;15.650;2022-09-09T03:21:39;98040.06;;;15.94;61.19
59194;BME280;44967;48.598;15.650;2022-09-09T03:24:05;98033.75;;;15.97;60.61
59194;BME280;44967;48.598;15.650;2022-09-09T03:26:32;98020.81;;;15.75;61.27
59194;BME280;44967;48.598;15.650;2022-09-09T03:28:58;98029.47;;;15.81;61.06
59194;BME280;44967;48.598;15.650;2022-09-09T03:31:26;98012.16;;;15.81;60.73
59194;BME280;44967;48.598;15.650;2022-09-09T03:33:59;98013.75;;;15.74;58.73
59194;BME280;44967;48.598;15.650;2022-09-09T03:36:26;98016.50;;;15.78;59.98
59194;BME280;44967;48.598;15.650;2022-09-09T03:38:53;98027.47;;;15.96;59.63
59194;BME280;44967;48.598;15.650;2022-09-09T03:41:20;98032.19;;;15.88;59.25
59194;BME280;44967;48.598;15.650;2022-09-09T03:43:46;98033.00;;;15.85;59.45
59194;BME280;44967;48.598;15.650;2022-09-09T03:46:12;98037.72;;;15.92;58.81
59194;BME280;44967;48.598;15.650;2022-09-09T03:48:37;98032.59;;;15.87;59.26
59194;BME280;44967;48.598;15.650;2022-09-09T03:51:03;98031.81;;;15.86;59.94
59194;BME280;44967;48.598;15.650;2022-09-09T03:53:29;98024.38;;;15.76;59.23
59194;BME280;44967;48.598;15.650;2022-09-09T03:55:56;98007.44;;;15.74;59.69
59194;BME280;44967;48.598;15.650;2022-09-09T03:58:25;98012.56;;;15.75;59.00
59194;BME280;44967;48.598;15.650;2022-09-09T04:00:59;98009.44;;;15.73;60.26
59194;BME280;44967;48.598;15.650;2022-09-09T04:03:26;98015.72;;;15.74;59.52
59194;BME280;44967;48.598;15.650;2022-09-09T04:05:53;98020.47;;;15.70;59.60
59194;BME280;44967;48.598;15.650;2022-09-09T04:08:20;98047.16;;;15.80;59.42
59194;BME280;44967;48.598;15.650;2022-09-09T04:10:47;98019.28;;;15.71;59.96
59194;BME280;44967;48.598;15.650;2022-09-09T04:13:14;98017.31;;;15.75;60.08
59194;BME280;44967;48.598;15.650;2022-09-09T04:15:41;98025.97;;;15.70;59.92
59194;BME280;44967;48.598;15.650;2022-09-09T04:18:07;98013.38;;;15.69;59.38
59194;BME280;44967;48.598;15.650;2022-09-09T04:20:33;98012.59;;;15.68;59.90
59194;BME280;44967;48.598;15.650;2022-09-09T04:22:59;98044.06;;;15.71;59.45
59194;BME280;44967;48.598;15.650;2022-09-09T04:25:25;98037.81;;;15.59;58.64
59194;BME280;44967;48.598;15.650;2022-09-09T04:27:54;98044.44;;;15.73;58.99
59194;BME280;44967;48.598;15.650;2022-09-09T04:30:21;98044.09;;;15.56;57.77
59194;BME280;44967;48.598;15.650;2022-09-09T04:32:46;98041.72;;;15.55;58.33
59194;BME280;44967;48.598;15.650;2022-09-09T04:35:12;98050.75;;;15.66;57.79
59194;BME280;44967;48.598;15.650;2022-09-09T04:37:38;98033.47;;;15.58;58.10
59194;BME280;44967;48.598;15.650;2022-09-09T04:40:05;98045.59;;;15.79;59.05
59194;BME280;44967;48.598;15.650;2022-09-09T04:42:35;98038.56;;;15.63;58.74
59194;BME280;44967;48.598;15.650;2022-09-09T04:45:01;98036.22;;;15.55;58.84
59194;BME280;44967;48.598;15.650;2022-09-09T04:47:27;98058.53;;;15.89;58.85
59194;BME280;44967;48.598;15.650;2022-09-09T04:49:52;98034.59;;;15.72;58.46
59194;BME280;44967;48.598;15.650;2022-09-09T04:52:20;98051.88;;;15.90;58.00
59194;BME280;44967;48.598;15.650;2022-09-09T04:54:46;98062.50;;;15.85;58.86
59194;BME280;44967;48.598;15.650;2022-09-09T04:57:13;98056.59;;;15.83;58.75
59194;BME280;44967;48.598;15.650;2022-09-09T04:59:39;98034.59;;;15.75;58.87
59194;BME280;44967;48.598;15.650;2022-09-09T05:02:05;98051.47;;;15.85;57.98
59194;BME280;44967;48.598;15.650;2022-09-09T05:04:31;98058.16;;;15.95;59.17
59194;BME280;44967;48.598;15.650;2022-09-09T05:06:58;98043.63;;;15.83;59.10
59194;BME280;44967;48.598;15.650;2022-09-09T05:09:24;98050.28;;;15.82;58.94
59194;BME280;44967;48.598;15.650;2022-09-09T05:11:50;98047.53;;;15.89;58.72
59194;BME280;44967;48.598;15.650;2022-09-09T05:14:17;98033.84;;;15.71;60.40
59194;BME280;44967;48.598;15.650;2022-09-09T05:16:44;98032.59;;;15.90;59.50
59194;BME280;44967;48.598;15.650;2022-09-09T05:19:10;98042.44;;;15.88;59.12
59194;BME280;44967;48.598;15.650;2022-09-09T05:21:37;98052.66;;;15.87;59.97
59194;BME280;44967;48.598;15.650;2022-09-09T05:24:03;98024.72;;;15.85;59.61
59194;BME280;44967;48.598;15.650;2022-09-09T05:26:29;98032.19;;;15.88;59.95
59194;BME280;44967;48.598;15.650;2022-09-09T05:28:55;98054.19;;;16.03;60.41
59194;BME280;44967;48.598;15.650;2022-09-09T05:31:21;98063.59;;;16.13;60.33
59194;BME280;44967;48.598;15.650;2022-09-09T05:33:47;98051.78;;;16.12;60.20
59194;BME280;44967;48.598;15.650;2022-09-09T05:36:18;98047.09;;;16.09;60.57
59194;BME280;44967;48.598;15.650;2022-09-09T05:38:44;98067.91;;;16.21;60.84
59194;BME280;44967;48.598;15.650;2022-09-09T05:41:11;98059.66;;;16.17;61.60
59194;BME280;44967;48.598;15.650;2022-09-09T05:43:38;98080.00;;;16.45;61.74
59194;BME280;44967;48.598;15.650;2022-09-09T05:46:09;98085.03;;;16.58;61.98
59194;BME280;44967;48.598;15.650;2022-09-09T05:48:37;98072.44;;;16.53;61.20
59194;BME280;44967;48.598;15.650;2022-09-09T05:51:10;98066.09;;;16.60;60.53
59194;BME280;44967;48.598;15.650;2022-09-09T05:53:38;98070.44;;;16.65;61.46
59194;BME280;44967;48.598;15.650;2022-09-09T05:56:08;98064.53;;;16.59;59.91
59194;BME280;44967;48.598;15.650;2022-09-09T05:58:40;98049.94;;;16.66;61.50
59194;BME280;44967;48.598;15.650;2022-09-09T06:01:23;98058.91;;;16.77;60.96
59194;BME280;44967;48.598;15.650;2022-09-09T06:03:50;98051.38;;;16.85;60.90
59194;BME280;44967;48.598;15.650;2022-09-09T06:06:25;98052.03;;;17.07;60.10
59194;BME280;44967;48.598;15.650;2022-09-09T06:08:54;98056.19;;;17.26;60.82
59194;BME280;44967;48.598;15.650;2022-09-09T06:11:29;98036.75;;;17.41;60.94
59194;BME280;44967;48.598;15.650;2022-09-09T06:13:59;98050.69;;;17.65;60.83
59194;BME280;44967;48.598;15.650;2022-09-09T06:16:27;98040.00;;;17.67;60.51
59194;BME280;44967;48.598;15.650;2022-09-09T06:18:54;98047.44;;;17.74;59.82
59194;BME280;44967;48.598;15.650;2022-09-09T06:21:29;98043.41;;;17.82;60.18
59194;BME280;44967;48.598;15.650;2022-09-09T06:23:56;98037.53;;;17.76;60.40
59194;BME280;44967;48.598;15.650;2022-09-09T06:26:24;98042.97;;;17.84;60.18
59194;BME280;44967;48.598;15.650;2022-09-09T06:28:52;98039.78;;;17.89;59.88
59194;BME280;44967;48.598;15.650;2022-09-09T06:31:21;98047.09;;;18.03;59.99
59194;BME280;44967;48.598;15.650;2022-09-09T06:33:48;98057.13;;;18.24;60.08
59194;BME280;44967;48.598;15.650;2022-09-09T06:36:19;98044.06;;;18.28;60.79
59194;BME280;44967;48.598;15.650;2022-09-09T06:38:45;98034.97;;;18.28;60.45
59194;BME280;44967;48.598;15.650;2022-09-09T06:41:13;98027.19;;;18.19;60.13
59194;BME280;44967;48.598;15.650;2022-09-09T06:43:39;98027.06;;;18.30;60.05
59194;BME280;44967;48.598;15.650;2022-09-09T06:46:08;98030.22;;;18.28;60.10
59194;BME280;44967;48.598;15.650;2022-09-09T06:48:36;98045.00;;;18.45;60.48
59194;BME280;44967;48.598;15.650;2022-09-09T06:51:08;98058.69;;;18.56;60.12
59194;BME280;44967;48.598;15.650;2022-09-09T06:53:35;98056.53;;;18.68;60.10
59194;BME280;44967;48.598;15.650;2022-09-09T06:56:23;98025.31;;;18.67;59.36
59194;BME280;44967;48.598;15.650;2022-09-09T06:58:51;98025.59;;;18.76;59.97
59194;BME280;44967;48.598;15.650;2022-09-09T07:01:19;98031.66;;;18.91;60.09
59194;BME280;44967;48.598;15.650;2022-09-09T07:03:48;98024.06;;;18.99;59.99
59194;BME280;44967;48.598;15.650;2022-09-09T07:06:15;98036.94;;;19.10;60.28
59194;BME280;44967;48.598;15.650;2022-09-09T07:08:43;98056.09;;;19.24;59.85
59194;BME280;44967;48.598;15.650;2022-09-09T07:11:09;98037.53;;;19.21;60.05
59194;BME280;44967;48.598;15.650;2022-09-09T07:13:34;98039.28;;;19.35;59.58
59194;BME280;44967;48.598;15.650;2022-09-09T07:16:09;98049.25;;;19.53;59.05
59194;BME280;44967;48.598;15.650;2022-09-09T07:18:35;98043.59;;;19.60;58.64
59194;BME280;44967;48.598;15.650;2022-09-09T07:21:02;98044.94;;;19.72;58.96
59194;BME280;44967;48.598;15.650;2022-09-09T07:23:29;98033.50;;;19.90;58.20
59194;BME280;44967;48.598;15.650;2022-09-09T07:25:56;98057.31;;;20.08;58.34
59194;BME280;44967;48.598;15.650;2022-09-09T07:28:22;98034.13;;;20.18;57.74
59194;BME280;44967;48.598;15.650;2022-09-09T07:30:59;98041.50;;;20.45;57.48
59194;BME280;44967;48.598;15.650;2022-09-09T07:33:26;98057.31;;;20.81;56.97
59194;BME280;44967;48.598;15.650;2022-09-09T07:35:52;98035.34;;;20.91;56.25
59194;BME280;44967;48.598;15.650;2022-09-09T07:38:19;98061.66;;;21.32;56.54
59194;BME280;44967;48.598;15.650;2022-09-09T07:40:46;98062.69;;;21.55;55.27
59194;BME280;44967;48.598;15.650;2022-09-09T07:43:11;98070.72;;;21.83;54.82
59194;BME280;44967;48.598;15.650;2022-09-09T07:45:38;98054.69;;;21.87;53.97
59194;BME280;44967;48.598;15.650;2022-09-09T07:48:03;98038.56;;;21.82;54.01
59194;BME280;44967;48.598;15.650;2022-09-09T07:50:29;98057.19;;;21.98;54.15
59194;BME280;44967;48.598;15.650;2022-09-09T07:52:56;98063.06;;;22.00;53.17
59194;BME280;44967;48.598;15.650;2022-09-09T07:55:22;98043.84;;;21.92;53.68
59194;BME280;44967;48.598;15.650;2022-09-09T07:57:53;98030.97;;;22.12;53.81
59194;BME280;44967;48.598;15.650;2022-09-09T08:00:19;98055.47;;;22.30;53.95
59194;BME280;44967;48.598;15.650;2022-09-09T08:02:47;98048.25;;;22.45;53.23
59194;BME280;44967;48.598;15.650;2022-09-09T08:05:12;98036.25;;;22.62;52.77
59194;BME280;44967;48.598;15.650;2022-09-09T08:07:38;98060.50;;;22.74;53.39
59194;BME280;44967;48.598;15.650;2022-09-09T08:10:04;98043.59;;;22.81;53.48
59194;BME280;44967;48.598;15.650;2022-09-09T08:12:31;98046.25;;;22.98;52.96
59194;BME280;44967;48.598;15.650;2022-09-09T08:14:57;98048.94;;;23.01;52.46
59194;BME280;44967;48.598;15.650;2022-09-09T08:17:24;98053.28;;;23.03;52.50
59194;BME280;44967;48.598;15.650;2022-09-09T08:19:49;98065.38;;;23.09;52.58
59194;BME280;44967;48.598;15.650;2022-09-09T08:22:15;98045.00;;;23.12;52.13
59194;BME280;44967;48.598;15.650;2022-09-09T08:24:41;98061.47;;;23.19;52.63
59194;BME280;44967;48.598;15.650;2022-09-09T08:27:07;98052.09;;;23.26;52.39
59194;BME280;44967;48.598;15.650;2022-09-09T08:29:32;98036.19;;;23.26;52.46
59194;BME280;44967;48.598;15.650;2022-09-09T08:31:58;98057.59;;;23.30;51.98
59194;BME280;44967;48.598;15.650;2022-09-09T08:34:26;98052.69;;;23.34;52.95
59194;BME280;44967;48.598;15.650;2022-09-09T08:36:53;98055.28;;;23.50;52.64
59194;BME280;44967;48.598;15.650;2022-09-09T08:39:21;98055.38;;;23.60;53.23
59194;BME280;44967;48.598;15.650;2022-09-09T08:49:48;98059.41;;;24.03;52.94
59194;BME280;44967;48.598;15.650;2022-09-09T08:57:51;98054.81;;;23.87;49.89
59194;BME280;44967;48.598;15.650;2022-09-09T09:00:18;98050.97;;;23.72;51.67
59194;BME280;44967;48.598;15.650;2022-09-09T09:08:20;98053.25;;;24.08;50.43
59194;BME280;44967;48.598;15.650;2022-09-09T09:10:51;98056.06;;;24.08;51.63
59194;BME280;44967;48.598;15.650;2022-09-09T09:13:23;98035.75;;;24.08;52.19
59194;BME280;44967;48.598;15.650;2022-09-09T09:15:58;98050.94;;;24.70;50.73
59194;BME280;44967;48.598;15.650;2022-09-09T09:18:26;98024.38;;;25.16;49.40
59194;BME280;44967;48.598;15.650;2022-09-09T09:26:17;98044.00;;;25.53;48.86
59194;BME280;44967;48.598;15.650;2022-09-09T09:28:44;98041.03;;;25.57;49.10
59194;BME280;44967;48.598;15.650;2022-09-09T09:31:12;98041.66;;;25.70;48.72
59194;BME280;44967;48.598;15.650;2022-09-09T09:33:50;98020.81;;;25.99;47.97
59194;BME280;44967;48.598;15.650;2022-09-09T09:36:20;98026.53;;;26.14;47.32
59194;BME280;44967;48.598;15.650;2022-09-09T09:38:57;98037.75;;;25.96;48.29
59194;BME280;44967;48.598;15.650;2022-09-09T09:41:38;98044.63;;;25.67;47.09
59194;BME280;44967;48.598;15.650;2022-09-09T09:44:18;98029.84;;;25.57;48.20
59194;BME280;44967;48.598;15.650;2022-09-09T09:46:48;98013.38;;;25.50;48.33
59194;BME280;44967;48.598;15.650;2022-09-09T09:49:13;98007.00;;;25.30;48.43
59194;BME280;44967;48.598;15.650;2022-09-09T09:51:39;98021.75;;;25.40;48.15
59194;BME280;44967;48.598;15.650;2022-09-09T09:54:09;98036.03;;;25.42;48.75
59194;BME280;44967;48.598;15.650;2022-09-09T09:56:44;98036.69;;;25.56;47.86
59194;BME280;44967;48.598;15.650;2022-09-09T09:59:33;98038.22;;;25.47;47.32
59194;BME280;44967;48.598;15.650;2022-09-09T10:04:38;98029.84;;;25.57;45.79
59194;BME280;44967;48.598;15.650;2022-09-09T10:07:22;98033.44;;;25.57;45.93
59194;BME280;44967;48.598;15.650;2022-09-09T10:09:52;98019.88;;;25.28;46.93
59194;BME280;44967;48.598;15.650;2022-09-09T10:21:01;98048.63;;;26.03;45.23
59194;BME280;44967;48.598;15.650;2022-09-09T10:29:10;98050.50;;;25.97;46.65
59194;BME280;44967;48.598;15.650;2022-09-09T10:34:53;98040.03;;;26.16;46.61
59194;BME280;44967;48.598;15.650;2022-09-09T10:51:27;98030.63;;;26.90;41.59
59194;BME280;44967;48.598;15.650;2022-09-09T10:56:43;98021.91;;;27.76;41.34
59194;BME280;44967;48.598;15.650;2022-09-09T10:59:18;98033.69;;;27.81;40.43
59194;BME280;44967;48.598;15.650;2022-09-09T11:01:56;98019.59;;;27.90;40.71
59194;BME280;44967;48.598;15.650;2022-09-09T11:04:42;98014.75;;;27.90;40.77
59194;BME280;44967;48.598;15.650;2022-09-09T11:07:13;98020.25;;;27.70;40.96
59194;BME280;44967;48.598;15.650;2022-09-09T11:09:50;98020.84;;;27.49;40.76
59194;BME280;44967;48.598;15.650;2022-09-09T11:12:21;98034.97;;;27.40;41.90
59194;BME280;44967;48.598;15.650;2022-09-09T11:15:04;98026.91;;;27.57;40.77
59194;BME280;44967;48.598;15.650;2022-09-09T11:17:44;98017.28;;;27.49;41.46
59194;BME280;44967;48.598;15.650;2022-09-09T11:20:13;98025.28;;;27.41;42.13
59194;BME280;44967;48.598;15.650;2022-09-09T11:25:17;98025.72;;;27.49;40.99
59194;BME280;44967;48.598;15.650;2022-09-09T11:31:06;98016.16;;;27.31;41.31
59194;BME280;44967;48.598;15.650;2022-09-09T11:33:41;98016.47;;;27.33;41.97
59194;BME280;44967;48.598;15.650;2022-09-09T11:42:05;98000.47;;;27.09;40.34
59194;BME280;44967;48.598;15.650;2022-09-09T11:44:32;98011.66;;;27.09;40.65
59194;BME280;44967;48.598;15.650;2022-09-09T11:46:58;98009.38;;;27.23;41.75
59194;BME280;44967;48.598;15.650;2022-09-09T11:49:40;98024.31;;;27.05;41.64
59194;BME280;44967;48.598;15.650;2022-09-09T11:54:47;98017.69;;;27.17;41.09
59194;BME280;44967;48.598;15.650;2022-09-09T11:57:33;98016.44;;;26.94;41.06
59194;BME280;44967;48.598;15.650;2022-09-09T12:00:00;98023.88;;;26.97;41.18
59194;BME280;44967;48.598;15.650;2022-09-09T12:02:28;98002.59;;;26.90;41.49
59194;BME280;44967;48.598;15.650;2022-09-09T12:07:54;98004.19;;;27.06;41.43
59194;BME280;44967;48.598;15.650;2022-09-09T12:10:28;97998.19;;;26.99;41.12
59194;BME280;44967;48.598;15.650;2022-09-09T12:12:55;97970.44;;;26.76;41.62
59194;BME280;44967;48.598;15.650;2022-09-09T12:15:24;97987.41;;;26.73;41.60
59194;BME280;44967;48.598;15.650;2022-09-09T12:17:55;97979.78;;;26.73;41.46
59194;BME280;44967;48.598;15.650;2022-09-09T12:20:37;98002.81;;;26.77;41.41
59194;BME280;44967;48.598;15.650;2022-09-09T12:26:07;98002.47;;;26.51;42.94
59194;BME280;44967;48.598;15.650;2022-09-09T12:28:49;97995.97;;;26.45;42.73
59194;BME280;44967;48.598;15.650;2022-09-09T12:31:44;98002.78;;;26.53;42.50
59194;BME280;44967;48.598;15.650;2022-09-09T12:34:20;97992.34;;;26.53;42.01
59194;BME280;44967;48.598;15.650;2022-09-09T12:36:55;98004.59;;;26.65;42.21
59194;BME280;44967;48.598;15.650;2022-09-09T12:41:53;98016.06;;;26.34;42.20
59194;BME280;44967;48.598;15.650;2022-09-09T12:44:26;97989.66;;;26.25;42.79
59194;BME280;44967;48.598;15.650;2022-09-09T12:46:58;97986.09;;;26.15;44.03
59194;BME280;44967;48.598;15.650;2022-09-09T12:49:36;97991.25;;;26.08;44.03
59194;BME280;44967;48.598;15.650;2022-09-09T12:52:08;97989.88;;;26.03;44.35
59194;BME280;44967;48.598;15.650;2022-09-09T12:54:44;97992.16;;;26.23;43.31
59194;BME280;44967;48.598;15.650;2022-09-09T12:57:12;97987.63;;;26.35;44.91
59194;BME280;44967;48.598;15.650;2022-09-09T12:59:41;97975.16;;;26.36;44.43
59194;BME280;44967;48.598;15.650;2022-09-09T13:02:26;97977.13;;;26.45;43.77
59194;BME280;44967;48.598;15.650;2022-09-09T13:04:53;97954.53;;;26.24;44.50
59194;BME280;44967;48.598;15.650;2022-09-09T13:07:20;97932.59;;;26.23;42.65
59194;BME280;44967;48.598;15.650;2022-09-09T13:09:48;97957.69;;;26.51;42.93
59194;BME280;44967;48.598;15.650;2022-09-09T13:12:17;97941.16;;;26.53;41.73
59194;BME280;44967;48.598;15.650;2022-09-09T13:14:46;97936.34;;;26.53;41.27
59194;BME280;44967;48.598;15.650;2022-09-09T13:17:24;97934.59;;;26.56;41.63
59194;BME280;44967;48.598;15.650;2022-09-09T13:19:52;97935.34;;;26.66;42.37
59194;BME280;44967;48.598;15.650;2022-09-09T13:22:29;97949.94;;;26.70;44.61
59194;BME280;44967;48.598;15.650;2022-09-09T13:27:34;97962.09;;;26.67;43.75
59194;BME280;44967;48.598;15.650;2022-09-09T13:30:29;97969.38;;;26.74;43.86
59194;BME280;44967;48.598;15.650;2022-09-09T13:33:34;97964.25;;;26.72;43.62
59194;BME280;44967;48.598;15.650;2022-09-09T13:35:57;97937.91;;;26.54;44.47
59194;BME280;44967;48.598;15.650;2022-09-09T13:38:25;97972.00;;;26.77;44.82
59194;BME280;44967;48.598;15.650;2022-09-09T13:41:07;97955.59;;;26.61;45.14
59194;BME280;44967;48.598;15.650;2022-09-09T13:43:41;97957.50;;;26.54;44.65
59194;BME280;44967;48.598;15.650;2022-09-09T13:46:39;97980.19;;;26.56;44.77
59194;BME280;44967;48.598;15.650;2022-09-09T13:54:11;97958.09;;;26.25;45.94
59194;BME280;44967;48.598;15.650;2022-09-09T13:56:38;97959.22;;;26.09;48.74
59194;BME280;44967;48.598;15.650;2022-09-09T13:59:06;97966.88;;;25.99;49.17
59194;BME280;44967;48.598;15.650;2022-09-09T14:01:34;97981.47;;;26.03;49.06
59194;BME280;44967;48.598;15.650;2022-09-09T14:04:00;97984.44;;;25.99;49.52
59194;BME280;44967;48.598;15.650;2022-09-09T14:06:26;97985.09;;;25.85;49.44
59194;BME280;44967;48.598;15.650;2022-09-09T14:08:53;97984.94;;;25.70;51.01
59194;BME280;44967;48.598;15.650;2022-09-09T14:11:20;97979.69;;;25.53;52.37
59194;BME280;44967;48.598;15.650;2022-09-09T14:13:47;97985.72;;;25.42;52.98
59194;BME280;44967;48.598;15.650;2022-09-09T14:16:16;97981.69;;;25.25;53.87
59194;BME280;44967;48.598;15.650;2022-09-09T14:18:43;97989.13;;;25.09;55.45
59194;BME280;44967;48.598;15.650;2022-09-09T14:21:09;98003.56;;;24.98;55.22
59194;BME280;44967;48.598;15.650;2022-09-09T14:23:36;98003.56;;;24.57;55.48
59194;BME280;44967;48.598;15.650;2022-09-09T14:26:04;98000.97;;;24.22;55.19
59194;BME280;44967;48.598;15.650;2022-09-09T14:28:30;97994.38;;;23.84;56.74
59194;BME280;44967;48.598;15.650;2022-09-09T14:30:59;98009.25;;;23.90;57.38
59194;BME280;44967;48.598;15.650;2022-09-09T14:33:25;97988.84;;;23.71;58.17
59194;BME280;44967;48.598;15.650;2022-09-09T14:35:56;98000.78;;;23.72;57.35
59194;BME280;44967;48.598;15.650;2022-09-09T14:38:24;97999.63;;;23.60;56.93
59194;BME280;44967;48.598;15.650;2022-09-09T14:40:49;98011.56;;;23.60;56.84
59194;BME280;44967;48.598;15.650;2022-09-09T14:43:15;98016.41;;;23.47;57.12
59194;BME280;44967;48.598;15.650;2022-09-09T14:45:41;98008.84;;;23.34;57.77
59194;BME280;44967;48.598;15.650;2022-09-09T14:48:06;98024.16;;;23.30;57.19
59194;BME280;44967;48.598;15.650;2022-09-09T14:50:33;98003.88;;;23.29;57.49
59194;BME280;44967;48.598;15.650;2022-09-09T14:53:00;98029.66;;;23.42;57.38
59194;BME280;44967;48.598;15.650;2022-09-09T14:55:25;98030.03;;;23.32;58.24
59194;BME280;44967;48.598;15.650;2022-09-09T14:57:54;98008.38;;;23.00;58.47
59194;BME280;44967;48.598;15.650;2022-09-09T15:00:19;98019.84;;;23.03;59.03
59194;BME280;44967;48.598;15.650;2022-09-09T15:02:45;98008.59;;;23.06;58.50
59194;BME280;44967;48.598;15.650;2022-09-09T15:05:11;98020.34;;;23.23;58.67
59194;BME280;44967;48.598;15.650;2022-09-09T15:07:36;98018.72;;;23.13;58.69
59194;BME280;44967;48.598;15.650;2022-09-09T15:10:04;98024.16;;;23.17;58.68